Time;durP1;ratioP1;P1;durP2;ratioP2;P2;SDS_P1;SDS_P2;PMS_P1;PMS_P2;Temp;Humidity;BMP_temperature;BMP_pressure;BME280_temperature;BME280_humidity;BME280_pressure;Samples;Min_cycle;Max_cycle;Signal;HPM_P1;HPM_P2
2023/06/11 00:00:45;;;;;;;;;;;;;;;12.69;56.82;102119.73;106960;1260;124606;-87
2023/06/11 00:03:33;;;;;;;;;;;;;;;12.69;56.72;102121.51;107282;1260;76740;-87
2023/06/11 00:05:59;;;;;;;;;;;;;;;12.65;56.69;102114.64;106935;1260;124640;-87
2023/06/11 00:08:38;;;;;;;;;;;;;;;12.58;56.66;102119.65;107221;1263;61139;-87
2023/06/11 00:11:06;;;;;;;;;;;;;;;12.53;56.64;102118.05;107160;1260;59291;-87
2023/06/11 00:13:35;;;;;;;;;;;;;;;12.52;56.79;102117.83;107107;1261;124113;-87
2023/06/11 00:16:03;;;;;;;;;;;;;;;12.52;56.79;102117.50;107210;1260;73316;-87
2023/06/11 00:18:30;;;;;;;;;;;;;;;12.49;56.79;102117.56;107236;1261;124246;-84
2023/06/11 00:20:59;;;;;;;;;;;;;;;12.45;56.85;102119.00;107037;1261;71394;-85
2023/06/11 00:23:25;;;;;;;;;;;;;;;12.43;56.84;102118.74;106775;1260;59208;-86
2023/06/11 00:25:54;;;;;;;;;;;;;;;12.44;56.85;102121.77;106744;1261;124052;-86
2023/06/11 00:28:29;;;;;;;;;;;;;;;12.42;56.65;102121.35;106882;1261;73752;-86
2023/06/11 00:31:05;;;;;;;;;;;;;;;12.40;56.73;102122.47;107116;1260;124459;-85
2023/06/11 00:33:34;;;;;;;;;;;;;;;12.40;56.88;102125.65;107177;1262;72729;-86
2023/06/11 00:36:02;;;;;;;;;;;;;;;12.39;56.81;102124.58;106742;1260;124470;-85
2023/06/11 00:38:35;;;;;;;;;;;;;;;12.34;56.73;102126.48;106877;1260;60676;-86
2023/06/11 00:41:03;;;;;;;;;;;;;;;12.26;56.81;102125.44;107184;1263;74474;-86
2023/06/11 00:43:32;;;;;;;;;;;;;;;12.20;56.97;102128.74;107135;1260;124143;-86
2023/06/11 00:46:10;;;;;;;;;;;;;;;12.15;57.07;102126.58;106755;1262;72768;-85
2023/06/11 00:48:44;;;;;;;;;;;;;;;12.08;57.15;102126.12;106828;1260;124076;-86
2023/06/11 00:51:12;;;;;;;;;;;;;;;12.00;57.21;102124.57;106850;1260;61262;-86
2023/06/11 00:53:39;;;;;;;;;;;;;;;11.92;57.44;102124.77;106712;1262;124587;-86
2023/06/11 00:56:06;;;;;;;;;;;;;;;11.84;57.51;102124.95;106795;1265;61597;-86
2023/06/11 00:58:39;;;;;;;;;;;;;;;11.77;57.70;102120.95;107091;1260;71104;-86
2023/06/11 01:01:06;;;;;;;;;;;;;;;11.73;57.88;102122.52;106881;1266;124231;-86
2023/06/11 01:03:41;;;;;;;;;;;;;;;11.68;58.01;102123.91;107108;1260;59655;-86
2023/06/11 01:06:11;;;;;;;;;;;;;;;11.65;58.02;102122.02;106912;1260;124752;-86
2023/06/11 01:08:40;;;;;;;;;;;;;;;11.62;58.16;102122.77;106844;1260;65020;-86
2023/06/11 01:11:22;;;;;;;;;;;;;;;11.59;58.22;102120.55;106980;1260;72720;-86
2023/06/11 01:13:56;;;;;;;;;;;;;;;11.59;58.37;102120.17;107022;1262;124115;-86
2023/06/11 01:16:25;;;;;;;;;;;;;;;11.63;58.55;102117.38;107198;1260;61277;-86
2023/06/11 01:19:03;;;;;;;;;;;;;;;11.66;58.45;102116.98;107029;1265;124586;-87
2023/06/11 01:21:33;;;;;;;;;;;;;;;11.65;58.53;102115.17;107145;1261;65541;-89
2023/06/11 01:24:18;;;;;;;;;;;;;;;11.63;58.52;102115.10;106890;1261;124879;-89
2023/06/11 01:27:04;;;;;;;;;;;;;;;11.60;58.46;102115.14;106922;1261;60098;-89
2023/06/11 01:29:45;;;;;;;;;;;;;;;11.58;58.55;102115.91;107057;1260;124363;-86
2023/06/11 01:32:14;;;;;;;;;;;;;;;11.56;58.60;102119.54;106811;1260;73069;-86
2023/06/11 01:34:42;;;;;;;;;;;;;;;11.55;58.76;102120.17;107039;1261;67236;-86
2023/06/11 01:37:14;;;;;;;;;;;;;;;11.50;58.68;102121.71;106917;1260;124364;-86
2023/06/11 01:39:47;;;;;;;;;;;;;;;11.46;58.84;102125.08;106894;1262;60238;-86
2023/06/11 01:42:19;;;;;;;;;;;;;;;11.41;58.84;102128.23;106961;1262;124444;-85
2023/06/11 01:44:47;;;;;;;;;;;;;;;11.37;58.99;102128.94;107045;1261;74595;-84
2023/06/11 01:47:21;;;;;;;;;;;;;;;11.35;59.10;102128.29;106811;1266;66970;-86
2023/06/11 01:49:48;;;;;;;;;;;;;;;11.34;59.18;102129.80;106660;1262;124433;-86
2023/06/11 01:52:20;;;;;;;;;;;;;;;11.31;59.26;102129.17;106871;1260;61280;-86
2023/06/11 01:54:54;;;;;;;;;;;;;;;11.32;59.41;102129.17;106950;1261;124275;-86
2023/06/11 01:57:23;;;;;;;;;;;;;;;11.32;59.45;102130.23;107095;1260;73468;-86
2023/06/11 01:59:49;;;;;;;;;;;;;;;11.32;59.51;102133.61;107010;1261;124614;-86
2023/06/11 02:02:42;;;;;;;;;;;;;;;11.31;59.56;102134.63;106958;1261;60080;-86
2023/06/11 02:05:19;;;;;;;;;;;;;;;11.29;59.59;102137.02;106824;1260;61808;-86
2023/06/11 02:07:46;;;;;;;;;;;;;;;11.29;59.67;102140.00;106943;1262;124101;-86
2023/06/11 02:10:12;;;;;;;;;;;;;;;11.33;59.80;102136.10;106789;1261;61315;-86
2023/06/11 02:12:45;;;;;;;;;;;;;;;11.34;59.81;102139.69;106873;1260;124581;-86
2023/06/11 02:15:11;;;;;;;;;;;;;;;11.37;59.84;102135.77;106937;1266;72598;-86
2023/06/11 02:17:45;;;;;;;;;;;;;;;11.41;59.90;102137.86;106957;1260;125040;-86
2023/06/11 02:20:11;;;;;;;;;;;;;;;11.46;59.95;102138.09;107028;1260;61157;-86
2023/06/11 02:22:38;;;;;;;;;;;;;;;11.54;59.93;102137.55;107071;1261;74980;-86
2023/06/11 02:25:05;;;;;;;;;;;;;;;11.59;59.89;102140.77;106927;1262;125099;-86
2023/06/11 02:27:32;;;;;;;;;;;;;;;11.66;59.93;102143.88;106982;1261;73235;-86
2023/06/11 02:29:59;;;;;;;;;;;;;;;11.73;59.85;102144.88;106671;1259;125820;-86
2023/06/11 02:32:28;;;;;;;;;;;;;;;11.80;59.76;102146.41;106934;1260;60599;-86
2023/06/11 02:34:56;;;;;;;;;;;;;;;11.86;59.80;102143.85;106953;1262;73919;-86
2023/06/11 02:37:24;;;;;;;;;;;;;;;11.92;59.62;102143.95;106805;1262;125262;-86
2023/06/11 02:39:51;;;;;;;;;;;;;;;12.00;59.58;102140.75;107098;1260;72689;-86
2023/06/11 02:42:17;;;;;;;;;;;;;;;12.07;59.49;102141.73;107005;1261;124490;-86
2023/06/11 02:44:44;;;;;;;;;;;;;;;12.12;59.37;102140.89;107131;1262;59329;-86
2023/06/11 02:47:17;;;;;;;;;;;;;;;12.18;59.32;102146.25;107154;1262;75511;-86
2023/06/11 02:49:55;;;;;;;;;;;;;;;12.24;59.18;102148.62;107227;1260;124487;-86
2023/06/11 02:52:28;;;;;;;;;;;;;;;12.32;59.04;102152.95;106991;1260;73023;-86
2023/06/11 02:54:57;;;;;;;;;;;;;;;12.38;58.92;102156.73;106862;1261;124200;-86
2023/06/11 02:57:23;;;;;;;;;;;;;;;12.43;58.77;102159.05;106956;1261;61218;-85
2023/06/11 02:59:49;;;;;;;;;;;;;;;12.49;58.68;102158.41;106904;1262;124346;-85
2023/06/11 03:02:22;;;;;;;;;;;;;;;12.56;58.53;102165.38;106957;1265;60608;-85
2023/06/11 03:05:05;;;;;;;;;;;;;;;12.64;58.42;102167.61;107092;1262;71612;-85
2023/06/11 03:07:33;;;;;;;;;;;;;;;12.72;58.30;102164.56;107029;1261;123949;-85
2023/06/11 03:09:59;;;;;;;;;;;;;;;12.78;58.07;102170.80;106847;1261;61226;-85
2023/06/11 03:12:29;;;;;;;;;;;;;;;12.87;58.00;102166.38;106684;1260;124368;-84
2023/06/11 03:14:57;;;;;;;;;;;;;;;12.96;57.85;102167.08;106830;1261;67085;-84
2023/06/11 03:17:24;;;;;;;;;;;;;;;13.05;57.70;102171.13;107018;1262;71712;-84
2023/06/11 03:19:50;;;;;;;;;;;;;;;13.15;57.57;102167.80;106972;1260;124079;-85
2023/06/11 03:22:18;;;;;;;;;;;;;;;13.27;57.36;102167.52;107025;1261;61987;-85
2023/06/11 03:24:44;;;;;;;;;;;;;;;13.43;57.27;102167.23;106905;1262;124704;-85
2023/06/11 03:27:11;;;;;;;;;;;;;;;13.90;57.85;102167.64;106798;1261;65596;-85
2023/06/11 03:32:44;;;;;;;;;;;;;;;15.65;55.98;102167.87;106884;1262;60755;-85
2023/06/11 03:35:11;;;;;;;;;;;;;;;15.58;54.62;102164.85;106853;1260;60080;-85
2023/06/11 03:37:38;;;;;;;;;;;;;;;15.40;54.37;102162.59;106803;1260;124281;-85
2023/06/11 03:40:13;;;;;;;;;;;;;;;15.37;54.32;102169.58;107054;1261;67024;-86
2023/06/11 03:42:40;;;;;;;;;;;;;;;15.40;54.02;102175.50;106848;1261;124641;-85
2023/06/11 03:45:07;;;;;;;;;;;;;;;15.46;53.92;102173.73;107123;1262;61133;-86
2023/06/11 03:47:33;;;;;;;;;;;;;;;16.03;54.61;102178.79;107028;1260;124560;-85
2023/06/11 03:50:00;;;;;;;;;;;;;;;17.83;54.96;102176.64;106581;1262;62190;-86
2023/06/11 03:52:27;;;;;;;;;;;;;;;19.99;53.58;102173.54;106787;1260;67115;-90
2023/06/11 03:54:56;;;;;;;;;;;;;;;21.90;51.62;102173.98;106676;1260;124351;-88
2023/06/11 03:57:29;;;;;;;;;;;;;;;23.57;49.73;102173.40;106956;1260;61327;-88
2023/06/11 03:59:56;;;;;;;;;;;;;;;25.21;47.69;102181.22;106986;1260;124448;-87
2023/06/11 04:02:23;;;;;;;;;;;;;;;26.18;45.53;102176.55;107226;1260;74691;-87
2023/06/11 04:04:51;;;;;;;;;;;;;;;27.24;44.30;102180.63;107116;1265;61288;-89
2023/06/11 04:07:18;;;;;;;;;;;;;;;28.26;42.60;102180.04;107269;1262;124359;-87
2023/06/11 04:09:46;;;;;;;;;;;;;;;29.11;41.17;102178.61;107104;1260;60995;-87
2023/06/11 04:12:12;;;;;;;;;;;;;;;29.92;39.91;102180.75;107102;1261;124430;-91
2023/06/11 04:14:38;;;;;;;;;;;;;;;30.68;38.61;102178.31;107038;1261;60455;-91
2023/06/11 04:17:22;;;;;;;;;;;;;;;31.19;37.26;102179.33;106693;1261;60025;-88
2023/06/11 04:19:57;;;;;;;;;;;;;;;31.63;36.24;102183.42;106724;1262;124050;-89
2023/06/11 04:22:25;;;;;;;;;;;;;;;32.38;35.20;102185.89;107013;1260;62221;-90
2023/06/11 04:24:59;;;;;;;;;;;;;;;32.77;33.96;102187.07;107171;1262;124323;-89
2023/06/11 04:27:26;;;;;;;;;;;;;;;33.10;33.20;102187.18;107039;1265;67806;-89
2023/06/11 04:32:54;;;;;;;;;;;;;;;34.58;31.77;102184.53;106924;1264;62668;-88
2023/06/11 04:35:37;;;;;;;;;;;;;;;35.07;30.43;102184.81;107107;1261;62119;-87
2023/06/11 04:38:32;;;;;;;;;;;;;;;35.24;29.71;102184.64;106803;1261;61234;-89
2023/06/11 04:41:23;;;;;;;;;;;;;;;35.40;28.97;102189.17;107179;1261;65758;-88
2023/06/11 04:43:52;;;;;;;;;;;;;;;35.66;28.42;102189.02;106738;1262;124564;-88
2023/06/11 04:46:32;;;;;;;;;;;;;;;35.94;27.72;102191.00;107153;1261;62851;-88
2023/06/11 04:52:04;;;;;;;;;;;;;;;36.83;26.46;102190.34;107092;1261;60403;-86
2023/06/11 04:54:34;;;;;;;;;;;;;;;37.04;26.07;102191.94;106877;1260;124312;-85
2023/06/11 04:57:05;;;;;;;;;;;;;;;37.13;25.41;102192.10;107010;1261;61264;-86
2023/06/11 04:59:38;;;;;;;;;;;;;;;36.95;25.09;102199.28;107084;1260;62804;-86
2023/06/11 05:02:22;;;;;;;;;;;;;;;36.88;24.49;102197.58;106741;1261;60571;-86
2023/06/11 05:04:57;;;;;;;;;;;;;;;36.76;24.53;102190.59;106708;1260;61189;-86
2023/06/11 05:07:31;;;;;;;;;;;;;;;37.09;24.17;102194.58;106939;1261;124338;-86
2023/06/11 05:10:03;;;;;;;;;;;;;;;36.89;23.77;102192.33;107355;1261;60021;-85
2023/06/11 05:12:32;;;;;;;;;;;;;;;36.81;23.59;102192.87;107084;1262;124348;-85
2023/06/11 05:15:18;;;;;;;;;;;;;;;37.27;23.48;102198.88;107387;1264;60452;-86
2023/06/11 05:17:46;;;;;;;;;;;;;;;38.03;22.88;102199.16;106863;1262;124469;-85
2023/06/11 05:20:30;;;;;;;;;;;;;;;38.57;22.33;102201.70;106978;1262;67175;-86
2023/06/11 05:23:02;;;;;;;;;;;;;;;39.16;22.07;102202.39;106926;1261;61189;-86
2023/06/11 05:25:46;;;;;;;;;;;;;;;39.67;21.60;102202.82;106791;1261;124599;-85
2023/06/11 05:28:23;;;;;;;;;;;;;;;40.16;21.17;102207.73;106949;1262;61729;-88
2023/06/11 05:31:05;;;;;;;;;;;;;;;40.28;20.74;102206.80;106785;1260;124885;-86
2023/06/11 05:34:10;;;;;;;;;;;;;;;40.15;20.17;102207.69;107010;1261;66073;-90
2023/06/11 05:36:42;;;;;;;;;;;;;;;39.99;20.19;102203.36;106456;1267;124489;-88
2023/06/11 05:39:28;;;;;;;;;;;;;;;40.30;19.81;102206.47;106289;1268;64123;-87
2023/06/11 05:41:55;;;;;;;;;;;;;;;38.36;18.93;102207.47;106344;1267;124394;-90
2023/06/11 05:44:21;;;;;;;;;;;;;;;35.67;19.46;102204.33;106019;1271;61259;-90
2023/06/11 05:47:06;;;;;;;;;;;;;;;33.54;19.99;102205.02;106142;1268;66222;-89
2023/06/11 05:50:07;;;;;;;;;;;;;;;31.25;20.78;102205.28;106017;1268;124232;-91
2023/06/11 05:56:11;;;;;;;;;;;;;;;27.16;23.07;102215.04;106248;1267;124004;-94
2023/06/11 05:59:15;;;;;;;;;;;;;;;25.95;24.18;102216.69;106383;1266;61457;-92
2023/06/11 06:04:54;;;;;;;;;;;;;;;24.09;25.90;102218.63;105874;1272;66867;-88
2023/06/11 06:07:21;;;;;;;;;;;;;;;23.18;26.58;102221.79;105799;1271;124452;-88
2023/06/11 06:09:59;;;;;;;;;;;;;;;22.46;27.29;102221.23;106248;1267;61181;-87
2023/06/11 06:12:32;;;;;;;;;;;;;;;21.98;28.15;102225.50;106225;1267;125195;-87
2023/06/11 06:14:58;;;;;;;;;;;;;;;21.51;28.64;102225.02;106389;1267;73189;-88
2023/06/11 06:17:25;;;;;;;;;;;;;;;21.07;29.34;102227.33;106438;1267;61421;-88
2023/06/11 06:19:51;;;;;;;;;;;;;;;20.78;29.79;102226.64;106400;1267;124333;-87
2023/06/11 06:22:31;;;;;;;;;;;;;;;20.47;30.15;102229.42;106411;1267;60229;-88
2023/06/11 06:25:15;;;;;;;;;;;;;;;20.14;30.58;102232.17;106389;1268;124533;-88
2023/06/11 06:30:41;;;;;;;;;;;;;;;19.91;31.44;102231.24;106242;1267;124317;-88
2023/06/11 06:33:20;;;;;;;;;;;;;;;19.81;31.70;102231.69;106711;1267;72397;-87
2023/06/11 06:35:46;;;;;;;;;;;;;;;19.62;31.95;102231.62;106442;1268;124304;-88
2023/06/11 06:38:14;;;;;;;;;;;;;;;19.46;32.30;102225.02;106409;1272;62194;-87
2023/06/11 06:40:40;;;;;;;;;;;;;;;19.31;32.46;102230.19;106366;1267;74820;-87
2023/06/11 06:43:07;;;;;;;;;;;;;;;19.14;32.83;102226.58;106645;1260;124226;-87
2023/06/11 06:45:34;;;;;;;;;;;;;;;19.09;33.29;102227.77;106931;1261;71280;-88
2023/06/11 06:48:01;;;;;;;;;;;;;;;19.06;33.46;102225.23;106833;1260;124245;-91
2023/06/11 06:50:35;;;;;;;;;;;;;;;18.97;33.66;102224.23;107075;1262;61367;-90
2023/06/11 06:53:07;;;;;;;;;;;;;;;18.97;34.06;102219.08;106904;1261;75142;-87
2023/06/11 06:55:33;;;;;;;;;;;;;;;18.99;34.32;102218.91;106955;1260;124256;-88
2023/06/11 06:58:00;;;;;;;;;;;;;;;19.00;34.53;102218.56;106927;1265;73118;-88
2023/06/11 07:00:32;;;;;;;;;;;;;;;19.00;34.61;102217.86;106862;1260;124267;-87
2023/06/11 07:02:58;;;;;;;;;;;;;;;19.00;34.80;102215.55;107071;1264;60565;-87
2023/06/11 07:05:38;;;;;;;;;;;;;;;18.97;34.93;102218.88;107152;1260;74980;-90
2023/06/11 07:08:13;;;;;;;;;;;;;;;18.97;35.17;102219.41;106990;1266;65583;-85
2023/06/11 07:10:41;;;;;;;;;;;;;;;18.93;35.30;102217.75;106724;1265;71900;-85
2023/06/11 07:13:08;;;;;;;;;;;;;;;18.88;35.49;102216.80;106553;1265;124505;-85
2023/06/11 07:15:47;;;;;;;;;;;;;;;18.85;35.73;102220.69;106846;1263;60415;-88
2023/06/11 07:18:25;;;;;;;;;;;;;;;18.84;36.12;102219.42;106773;1262;124845;-89
2023/06/11 07:20:57;;;;;;;;;;;;;;;18.90;36.23;102219.87;106525;1260;66876;-86
2023/06/11 07:23:30;;;;;;;;;;;;;;;18.91;36.35;102217.21;106606;1261;71429;-86
2023/06/11 07:25:56;;;;;;;;;;;;;;;18.98;36.51;102215.16;106535;1260;124262;-86
2023/06/11 07:28:30;;;;;;;;;;;;;;;19.03;36.52;102220.94;106819;1260;61430;-86
2023/06/11 07:31:00;;;;;;;;;;;;;;;19.07;36.72;102217.25;106745;1265;124186;-87
2023/06/11 07:33:33;;;;;;;;;;;;;;;19.11;36.69;102215.70;107147;1264;67052;-87
2023/06/11 07:36:00;;;;;;;;;;;;;;;19.05;36.78;102212.59;106881;1262;72265;-86
2023/06/11 07:38:42;;;;;;;;;;;;;;;19.08;36.88;102213.52;106717;1265;60065;-87
2023/06/11 07:41:12;;;;;;;;;;;;;;;19.09;36.92;102214.92;107027;1266;59930;-87
2023/06/11 07:43:56;;;;;;;;;;;;;;;19.03;37.08;102216.84;107331;1261;73223;-92
2023/06/11 07:46:22;;;;;;;;;;;;;;;19.02;37.21;102217.17;107124;1263;66873;-86
2023/06/11 07:48:49;;;;;;;;;;;;;;;19.01;37.36;102215.75;107140;1264;124379;-88
2023/06/11 07:51:16;;;;;;;;;;;;;;;19.02;37.82;102212.20;106945;1265;61211;-87
2023/06/11 07:53:45;;;;;;;;;;;;;;;19.11;37.84;102212.31;106865;1261;61211;-84
2023/06/11 07:56:26;;;;;;;;;;;;;;;19.16;37.81;102212.21;107099;1266;74599;-86
2023/06/11 07:58:54;;;;;;;;;;;;;;;19.15;37.87;102210.59;107075;1263;66985;-85
2023/06/11 08:01:21;;;;;;;;;;;;;;;19.16;38.12;102208.29;107077;1265;124114;-85
2023/06/11 08:03:47;;;;;;;;;;;;;;;19.18;38.20;102214.54;107164;1261;61293;-86
2023/06/11 08:06:14;;;;;;;;;;;;;;;19.22;38.34;102211.39;106903;1260;124941;-85
2023/06/11 08:08:40;;;;;;;;;;;;;;;19.27;38.37;102215.71;107044;1261;61370;-83
2023/06/11 08:11:08;;;;;;;;;;;;;;;19.29;38.50;102211.64;106884;1266;60141;-84
2023/06/11 08:13:38;;;;;;;;;;;;;;;19.31;39.11;102208.82;106656;1267;124343;-85
2023/06/11 08:16:05;;;;;;;;;;;;;;;19.34;39.47;102208.51;106995;1260;60364;-84
2023/06/11 08:18:31;;;;;;;;;;;;;;;19.35;39.10;102200.70;106947;1260;124448;-84
2023/06/11 08:21:05;;;;;;;;;;;;;;;19.39;39.25;102200.56;106925;1260;61270;-83
2023/06/11 08:23:33;;;;;;;;;;;;;;;19.45;39.67;102203.83;107094;1265;66873;-83
2023/06/11 08:26:00;;;;;;;;;;;;;;;19.42;39.85;102204.50;107181;1262;124175;-84
2023/06/11 08:28:29;;;;;;;;;;;;;;;19.38;40.02;102203.21;107340;1260;60829;-83
2023/06/11 08:30:55;;;;;;;;;;;;;;;19.35;40.26;102199.09;107353;1260;124212;-85
2023/06/11 08:33:22;;;;;;;;;;;;;;;19.32;40.44;102202.80;107033;1260;75258;-85
2023/06/11 08:36:08;;;;;;;;;;;;;;;19.30;40.53;102209.34;106973;1261;61767;-85
2023/06/11 08:38:35;;;;;;;;;;;;;;;19.26;40.57;102208.04;107044;1261;72691;-85
2023/06/11 08:41:01;;;;;;;;;;;;;;;19.26;40.87;102200.58;107175;1260;61384;-85
2023/06/11 08:43:29;;;;;;;;;;;;;;;19.29;41.01;102204.35;106877;1266;124866;-85
2023/06/11 08:46:16;;;;;;;;;;;;;;;19.35;41.08;102197.30;107246;1260;73579;-85
2023/06/11 08:48:44;;;;;;;;;;;;;;;19.39;40.97;102196.30;106812;1260;124564;-86
2023/06/11 08:51:11;;;;;;;;;;;;;;;19.40;41.11;102200.20;106761;1260;71273;-86
2023/06/11 08:53:39;;;;;;;;;;;;;;;19.38;41.16;102197.33;106992;1260;60104;-85
2023/06/11 08:56:08;;;;;;;;;;;;;;;19.34;41.30;102192.48;106700;1261;124541;-86
2023/06/11 08:58:34;;;;;;;;;;;;;;;19.33;41.56;102191.23;105938;1260;1289267;-86
2023/06/11 09:01:08;;;;;;;;;;;;;;;19.35;41.68;102194.10;106709;1264;124603;-86
2023/06/11 09:03:35;;;;;;;;;;;;;;;19.32;41.77;102189.96;106867;1260;72516;-86
2023/06/11 09:06:02;;;;;;;;;;;;;;;19.36;42.00;102190.37;106646;1262;124767;-86
2023/06/11 09:08:30;;;;;;;;;;;;;;;19.36;41.92;102190.20;107146;1260;62180;-86
2023/06/11 09:10:56;;;;;;;;;;;;;;;19.37;41.99;102190.55;106882;1260;74855;-86
2023/06/11 09:13:27;;;;;;;;;;;;;;;19.39;42.17;102184.54;106657;1267;124643;-86
2023/06/11 09:16:17;;;;;;;;;;;;;;;19.46;42.28;102190.13;106792;1260;70679;-86
2023/06/11 09:18:44;;;;;;;;;;;;;;;19.49;42.20;102179.83;106817;1260;124679;-86
2023/06/11 09:21:11;;;;;;;;;;;;;;;19.52;42.30;102187.34;106682;1260;61295;-88
2023/06/11 09:23:40;;;;;;;;;;;;;;;19.51;42.18;102187.35;106821;1260;75286;-87
2023/06/11 09:26:15;;;;;;;;;;;;;;;19.53;42.22;102190.38;106679;1266;124341;-88
2023/06/11 09:29:00;;;;;;;;;;;;;;;19.53;42.28;102188.96;106936;1261;73061;-87
2023/06/11 09:31:30;;;;;;;;;;;;;;;19.58;42.29;102187.05;106689;1260;124276;-88
2023/06/11 09:34:00;;;;;;;;;;;;;;;19.63;42.29;102188.17;106888;1260;61221;-87
2023/06/11 09:36:36;;;;;;;;;;;;;;;19.70;42.38;102189.86;106601;1260;124665;-87
2023/06/11 09:39:16;;;;;;;;;;;;;;;19.70;42.29;102191.81;107300;1260;65938;-87
2023/06/11 09:41:51;;;;;;;;;;;;;;;19.68;42.33;102191.98;107010;1260;72747;-87
2023/06/11 09:44:19;;;;;;;;;;;;;;;19.68;42.37;102188.23;106805;1260;61322;-87
2023/06/11 09:46:51;;;;;;;;;;;;;;;19.72;42.49;102186.50;106691;1261;61869;-87
2023/06/11 09:49:22;;;;;;;;;;;;;;;19.78;42.41;102185.15;107076;1260;124425;-88
2023/06/11 09:51:50;;;;;;;;;;;;;;;19.83;42.35;102184.31;107087;1260;67089;-87
2023/06/11 09:54:20;;;;;;;;;;;;;;;19.85;42.25;102182.55;106543;1261;124534;-87
2023/06/11 09:56:46;;;;;;;;;;;;;;;19.80;41.92;102173.24;106768;1261;59969;-87
2023/06/11 09:59:13;;;;;;;;;;;;;;;19.82;42.10;102171.48;106787;1260;61840;-92
2023/06/11 10:05:26;;;;;;;;;;;;;;;19.91;42.01;102170.67;107150;1261;67465;-91
2023/06/11 10:08:27;;;;;;;;;;;;;;;20.00;41.90;102173.08;107042;1260;124142;-90
2023/06/11 10:11:00;;;;;;;;;;;;;;;20.05;41.54;102172.76;107004;1260;60014;-89
2023/06/11 10:13:38;;;;;;;;;;;;;;;20.09;41.54;102174.21;106855;1260;124726;-87
2023/06/11 10:16:13;;;;;;;;;;;;;;;20.12;41.46;102175.30;106987;1260;74582;-90
2023/06/11 10:19:14;;;;;;;;;;;;;;;20.17;41.40;102181.58;106948;1260;124123;-95
2023/06/11 10:21:44;;;;;;;;;;;;;;;20.21;41.05;102178.05;106868;1261;72599;-86
2023/06/11 10:24:24;;;;;;;;;;;;;;;20.27;40.65;102175.26;107050;1261;124777;-85
2023/06/11 10:27:08;;;;;;;;;;;;;;;20.34;40.68;102180.12;107113;1267;61420;-86
2023/06/11 10:29:37;;;;;;;;;;;;;;;20.29;40.51;102186.32;107507;1260;75668;-86
2023/06/11 10:32:13;;;;;;;;;;;;;;;20.28;40.59;102184.34;107501;1260;124114;-85
2023/06/11 10:34:40;;;;;;;;;;;;;;;20.32;40.14;102185.62;106998;1260;71315;-85
2023/06/11 10:37:08;;;;;;;;;;;;;;;20.30;39.75;102185.79;107341;1263;124745;-84
2023/06/11 10:39:34;;;;;;;;;;;;;;;20.26;39.50;102185.03;107110;1265;61277;-85
2023/06/11 10:42:02;;;;;;;;;;;;;;;20.22;39.60;102182.88;106938;1260;124787;-85
2023/06/11 10:44:32;;;;;;;;;;;;;;;20.23;39.49;102185.37;107029;1260;66569;-85
2023/06/11 10:47:03;;;;;;;;;;;;;;;20.24;39.40;102180.04;107402;1264;72448;-86
2023/06/11 10:49:32;;;;;;;;;;;;;;;20.23;39.37;102185.02;106991;1260;124652;-85
2023/06/11 10:51:59;;;;;;;;;;;;;;;20.22;39.36;102183.05;106962;1260;61223;-85
2023/06/11 10:54:33;;;;;;;;;;;;;;;20.20;39.17;102177.34;107072;1265;125176;-85
2023/06/11 10:57:02;;;;;;;;;;;;;;;20.24;38.93;102173.08;107305;1260;66807;-85
2023/06/11 10:59:29;;;;;;;;;;;;;;;20.28;38.74;102175.43;107343;1260;72579;-85
2023/06/11 11:01:56;;;;;;;;;;;;;;;20.32;38.63;102175.28;107042;1261;124532;-85
2023/06/11 11:04:22;;;;;;;;;;;;;;;20.35;38.58;102173.52;107036;1260;59602;-85
2023/06/11 11:07:03;;;;;;;;;;;;;;;20.39;38.62;102177.29;106781;1260;124622;-85
2023/06/11 11:09:29;;;;;;;;;;;;;;;20.45;38.53;102175.90;106873;1260;66951;-85
2023/06/11 11:11:58;;;;;;;;;;;;;;;20.48;38.39;102169.86;106747;1263;124424;-85
2023/06/11 11:14:27;;;;;;;;;;;;;;;20.50;38.34;102170.60;106909;1263;61363;-84
2023/06/11 11:16:55;;;;;;;;;;;;;;;20.54;38.19;102164.93;107058;1260;59993;-82
2023/06/11 11:19:25;;;;;;;;;;;;;;;20.61;37.80;102171.39;106925;1267;125191;-85
2023/06/11 11:21:52;;;;;;;;;;;;;;;20.63;37.53;102167.14;107280;1263;67474;-84
2023/06/11 11:24:19;;;;;;;;;;;;;;;20.60;37.02;102164.43;108550;1260;124865;-84
2023/06/11 11:26:48;;;;;;;;;;;;;;;20.61;37.08;102168.02;108724;1260;58961;-83
2023/06/11 11:29:14;;;;;;;;;;;;;;;20.62;36.86;102167.48;108735;1260;59196;-83
2023/06/11 11:31:41;;;;;;;;;;;;;;;20.61;36.70;102171.05;108481;1260;125063;-83
2023/06/11 11:34:08;;;;;;;;;;;;;;;20.58;36.40;102171.89;108567;1260;59548;-83
2023/06/11 11:36:36;;;;;;;;;;;;;;;20.53;36.28;102172.75;108519;1260;124924;-83
2023/06/11 11:39:11;;;;;;;;;;;;;;;20.48;36.34;102173.08;108695;1260;58894;-83
2023/06/11 11:41:44;;;;;;;;;;;;;;;20.48;36.35;102166.30;108346;1260;59976;-84
2023/06/11 11:44:12;;;;;;;;;;;;;;;20.53;36.27;102160.80;107025;1265;124549;-84
2023/06/11 11:46:41;;;;;;;;;;;;;;;20.56;36.21;102165.45;107420;1260;67384;-86
2023/06/11 11:49:08;;;;;;;;;;;;;;;20.57;36.06;102163.33;107384;1260;125363;-84
2023/06/11 11:51:40;;;;;;;;;;;;;;;20.63;35.99;102166.95;107143;1264;61405;-84
2023/06/11 11:54:07;;;;;;;;;;;;;;;20.66;35.65;102168.23;107033;1260;125541;-84
2023/06/11 11:56:33;;;;;;;;;;;;;;;20.64;35.58;102165.89;107159;1261;74950;-84
2023/06/11 11:59:00;;;;;;;;;;;;;;;20.65;35.44;102163.41;107226;1261;60020;-86
2023/06/11 12:01:36;;;;;;;;;;;;;;;20.66;35.18;102172.52;107116;1260;125302;-84
2023/06/11 12:04:03;;;;;;;;;;;;;;;20.61;34.97;102160.52;107340;1260;61108;-85
2023/06/11 12:06:30;;;;;;;;;;;;;;;20.64;35.05;102162.51;107156;1260;125984;-84
2023/06/11 12:08:57;;;;;;;;;;;;;;;20.67;35.06;102164.13;107301;1260;74755;-84
2023/06/11 12:11:23;;;;;;;;;;;;;;;20.66;35.05;102165.20;107413;1260;59641;-84
2023/06/11 12:13:50;;;;;;;;;;;;;;;20.59;35.13;102166.23;107309;1264;124556;-84
2023/06/11 12:16:16;;;;;;;;;;;;;;;20.60;35.33;102159.45;108639;1260;59280;-84
2023/06/11 12:18:43;;;;;;;;;;;;;;;20.64;35.09;102162.70;108660;1260;125141;-84
2023/06/11 12:21:12;;;;;;;;;;;;;;;20.63;35.03;102161.80;108105;1260;60080;-84
2023/06/11 12:23:38;;;;;;;;;;;;;;;20.60;35.08;102166.58;107093;1260;67108;-84
2023/06/11 12:26:05;;;;;;;;;;;;;;;20.56;34.92;102173.14;107034;1263;124341;-84
2023/06/11 12:28:32;;;;;;;;;;;;;;;20.49;34.85;102167.38;107146;1260;61267;-83
2023/06/11 12:30:59;;;;;;;;;;;;;;;20.42;35.03;102169.30;107214;1260;124223;-82
2023/06/11 12:33:25;;;;;;;;;;;;;;;20.42;34.75;102175.36;107514;1260;60861;-84
2023/06/11 12:35:52;;;;;;;;;;;;;;;20.35;34.55;102168.71;107165;1260;125353;-80
2023/06/11 12:38:18;;;;;;;;;;;;;;;20.30;34.51;102176.70;107054;1260;72258;-83
2023/06/11 12:40:44;;;;;;;;;;;;;;;20.26;34.41;102176.13;108515;1262;59382;-82
2023/06/11 12:43:14;;;;;;;;;;;;;;;20.24;34.47;102173.80;107103;1262;124301;-83
2023/06/11 12:45:44;;;;;;;;;;;;;;;20.23;34.41;102170.75;107078;1260;74583;-83
2023/06/11 12:48:11;;;;;;;;;;;;;;;20.24;34.50;102166.67;106956;1260;124300;-83
2023/06/11 12:50:38;;;;;;;;;;;;;;;20.27;34.40;102164.18;106961;1260;72873;-83
2023/06/11 12:53:04;;;;;;;;;;;;;;;20.23;34.29;102168.08;107376;1261;61393;-83
2023/06/11 12:55:31;;;;;;;;;;;;;;;20.21;34.28;102164.85;107581;1263;125002;-82
2023/06/11 12:57:58;;;;;;;;;;;;;;;20.21;34.30;102168.25;107252;1260;74705;-82
2023/06/11 13:03:47;;;;;;;;;;;;;;;20.27;34.33;102159.56;107240;1260;73113;-81
2023/06/11 13:06:13;;;;;;;;;;;;;;;20.29;34.21;102161.35;107199;1260;124257;-82
2023/06/11 13:08:40;;;;;;;;;;;;;;;20.26;34.22;102159.19;107384;1260;61367;-81